Time;durP1;ratioP1;P1;durP2;ratioP2;P2;SDS_P1;SDS_P2;PMS_P1;PMS_P2;Temp;Humidity;BMP_temperature;BMP_pressure;BME280_temperature;BME280_humidity;BME280_pressure;Samples;Min_cycle;Max_cycle;Signal;HPM_P1;HPM_P2
2023/03/28 00:01:08;;;;;;;1.20;1.00;;;3.70;98.00;;;;;;5029622;28;20475;-68
2023/03/28 00:03:38;;;;;;;1.30;1.10;;;3.80;98.00;;;;;;5030603;28;20460;-70
2023/03/28 00:06:09;;;;;;;1.40;1.30;;;3.80;98.00;;;;;;5030643;28;20464;-69
2023/03/28 00:08:38;;;;;;;1.73;1.30;;;3.70;98.00;;;;;;5030846;28;20562;-68
2023/03/28 00:11:07;;;;;;;1.20;1.20;;;3.30;98.00;;;;;;5030674;28;20467;-68
2023/03/28 00:13:36;;;;;;;1.77;1.20;;;3.20;98.00;;;;;;5030588;28;20495;-70
2023/03/28 00:16:06;;;;;;;2.43;1.40;;;3.20;98.00;;;;;;5030542;28;20467;-70
2023/03/28 00:18:36;;;;;;;1.37;1.13;;;3.20;98.00;;;;;;5030528;28;20982;-69
2023/03/28 00:21:06;;;;;;;2.43;1.17;;;3.30;98.00;;;;;;5029450;28;20513;-70
2023/03/28 00:23:34;;;;;;;1.20;1.20;;;3.30;98.00;;;;;;5030539;28;20549;-68
2023/03/28 00:26:07;;;;;;;1.20;1.20;;;3.40;98.00;;;;;;5029158;28;20494;-69
2023/03/28 00:28:36;;;;;;;1.20;1.10;;;3.40;98.00;;;;;;5030428;28;20522;-69
2023/03/28 00:31:06;;;;;;;1.63;1.37;;;3.50;98.00;;;;;;5032462;28;20515;-69
2023/03/28 00:33:35;;;;;;;1.30;1.20;;;3.50;98.00;;;;;;5034011;28;21002;-68
2023/03/28 00:36:02;;;;;;;1.73;1.40;;;3.50;98.00;;;;;;5033948;28;20948;-70
2023/03/28 00:38:30;;;;;;;1.23;1.10;;;3.50;98.00;;;;;;5034153;28;20466;-69
2023/03/28 00:40:58;;;;;;;1.30;1.20;;;3.50;98.00;;;;;;5034104;28;20463;-69
2023/03/28 00:43:40;;;;;;;2.57;1.27;;;3.30;98.00;;;;;;5034362;28;20864;-68
2023/03/28 00:46:15;;;;;;;2.23;1.37;;;3.30;98.00;;;;;;5032580;28;20471;-69
2023/03/28 00:48:50;;;;;;;1.53;1.33;;;3.20;98.00;;;;;;5033788;28;20464;-67
2023/03/28 00:51:20;;;;;;;1.90;1.33;;;3.20;98.00;;;;;;5033704;28;20452;-69
2023/03/28 00:53:51;;;;;;;2.50;1.53;;;3.20;98.00;;;;;;5033538;28;20582;-68
2023/03/28 00:56:22;;;;;;;1.23;1.10;;;3.20;98.00;;;;;;5033808;28;20718;-70
2023/03/28 00:58:51;;;;;;;1.70;1.50;;;3.10;98.00;;;;;;5033837;28;20505;-69
2023/03/28 01:01:20;;;;;;;1.30;1.03;;;2.90;98.00;;;;;;5033609;28;20454;-69
2023/03/28 01:03:55;;;;;;;1.87;1.30;;;3.00;98.00;;;;;;5033500;28;20465;-70
2023/03/28 01:06:24;;;;;;;1.43;1.30;;;3.00;98.00;;;;;;5033373;28;20483;-69
2023/03/28 01:08:52;;;;;;;1.63;1.40;;;2.90;98.00;;;;;;5032080;28;20456;-70
2023/03/28 01:11:20;;;;;;;1.20;1.10;;;2.90;98.00;;;;;;5033216;28;20466;-69
2023/03/28 01:13:50;;;;;;;3.40;1.70;;;2.80;98.00;;;;;;5033127;28;20493;-69
2023/03/28 01:16:21;;;;;;;2.30;1.40;;;2.80;98.00;;;;;;5033326;28;20966;-70
2023/03/28 01:18:51;;;;;;;1.20;1.20;;;2.90;98.00;;;;;;5033141;28;20545;-69
2023/03/28 01:22:06;;;;;;;1.60;1.60;;;2.80;98.00;;;;;;5033065;28;20494;-69
2023/03/28 01:25:07;;;;;;;1.13;1.10;;;2.80;98.00;;;;;;5027923;28;20516;-69
2023/03/28 01:27:44;;;;;;;3.27;1.70;;;2.90;98.00;;;;;;5033079;28;20485;-69
2023/03/28 01:30:43;;;;;;;1.40;1.20;;;2.90;98.00;;;;;;5033055;28;20946;-69
2023/03/28 01:33:39;;;;;;;1.80;1.50;;;2.90;98.00;;;;;;5020720;28;20480;-69
2023/03/28 01:36:44;;;;;;;1.90;1.43;;;2.80;98.00;;;;;;5033004;28;20891;-70
2023/03/28 01:39:22;;;;;;;1.20;1.10;;;2.80;98.00;;;;;;5032679;28;20802;-68
2023/03/28 01:41:59;;;;;;;1.30;1.10;;;2.70;98.00;;;;;;5032651;28;20458;-70
2023/03/28 01:44:34;;;;;;;1.97;1.40;;;2.80;98.00;;;;;;5032924;28;20466;-68
2023/03/28 01:47:10;;;;;;;1.30;1.00;;;2.90;98.00;;;;;;5033458;28;20451;-69
2023/03/28 01:49:46;;;;;;;1.30;1.10;;;2.90;98.00;;;;;;5033407;28;20457;-68
2023/03/28 01:52:20;;;;;;;1.63;1.30;;;2.90;98.00;;;;;;5032639;28;20502;-69
2023/03/28 01:54:57;;;;;;;1.20;1.07;;;2.90;98.00;;;;;;5032838;28;20467;-68
2023/03/28 01:57:30;;;;;;;1.20;1.03;;;2.90;98.00;;;;;;5032740;28;20515;-70
2023/03/28 02:00:10;;;;;;;8.10;1.20;;;3.00;98.00;;;;;;5033244;28;20545;-68
2023/03/28 02:02:42;;;;;;;1.30;1.13;;;3.00;98.00;;;;;;5032884;28;20495;-68
2023/03/28 02:05:14;;;;;;;2.17;1.77;;;3.10;98.00;;;;;;5032567;28;20849;-69
2023/03/28 02:07:44;;;;;;;1.97;1.30;;;3.10;98.00;;;;;;5032610;28;21152;-69
2023/03/28 02:10:16;;;;;;;1.10;1.00;;;3.20;98.00;;;;;;5032351;28;20457;-70
2023/03/28 02:12:48;;;;;;;1.60;1.30;;;3.20;98.00;;;;;;5032208;28;20483;-69
2023/03/28 02:15:20;;;;;;;1.20;1.20;;;3.10;98.00;;;;;;5032251;28;20458;-69
2023/03/28 02:17:51;;;;;;;1.50;1.10;;;3.20;98.00;;;;;;5032138;28;20489;-69
2023/03/28 02:20:23;;;;;;;2.17;1.17;;;3.30;98.00;;;;;;5032126;28;20485;-68
2023/03/28 02:22:54;;;;;;;1.37;1.30;;;3.40;98.00;;;;;;5031887;28;20548;-70
2023/03/28 02:25:22;;;;;;;1.10;1.00;;;3.40;98.00;;;;;;5031991;28;20539;-69
2023/03/28 02:27:52;;;;;;;1.73;1.20;;;3.30;98.00;;;;;;5031917;28;20456;-69
2023/03/28 02:30:20;;;;;;;1.10;1.00;;;3.10;98.00;;;;;;5031899;28;20491;-68
2023/03/28 02:32:49;;;;;;;1.40;1.20;;;3.10;98.00;;;;;;5031889;28;20488;-68
2023/03/28 02:35:18;;;;;;;1.20;1.10;;;3.00;98.00;;;;;;5030597;28;20556;-69
2023/03/28 02:37:55;;;;;;;1.53;1.27;;;2.90;98.00;;;;;;5031928;28;20464;-70
2023/03/28 02:40:36;;;;;;;1.97;1.20;;;2.80;98.00;;;;;;5032027;28;20459;-68
2023/03/28 02:43:29;;;;;;;1.20;1.10;;;2.80;98.00;;;;;;5031847;28;20970;-69
2023/03/28 02:46:19;;;;;;;1.53;1.20;;;3.00;98.00;;;;;;5045713;28;20464;-69
2023/03/28 02:49:04;;;;;;;1.30;1.30;;;3.00;98.00;;;;;;5051475;28;21080;-70
2023/03/28 02:51:39;;;;;;;3.27;1.60;;;2.90;98.00;;;;;;5051332;28;20460;-68
2023/03/28 02:54:20;;;;;;;1.30;1.30;;;2.80;98.00;;;;;;5050438;28;20827;-69
2023/03/28 02:56:59;;;;;;;1.10;1.00;;;2.80;98.00;;;;;;5051464;28;20525;-70
2023/03/28 02:59:32;;;;;;;1.83;1.40;;;2.70;98.00;;;;;;5051340;28;20451;-68
2023/03/28 03:02:01;;;;;;;1.30;1.23;;;2.60;98.00;;;;;;5051173;28;20462;-69
2023/03/28 03:04:30;;;;;;;2.80;1.10;;;2.70;98.00;;;;;;5050301;28;20481;-68
2023/03/28 03:06:59;;;;;;;1.53;1.20;;;2.50;98.00;;;;;;5050748;28;20460;-68
2023/03/28 03:09:26;;;;;;;1.17;1.13;;;2.40;98.00;;;;;;5051179;28;20470;-69
2023/03/28 03:11:55;;;;;;;1.10;1.07;;;2.20;98.00;;;;;;5051083;28;20457;-69
2023/03/28 03:14:22;;;;;;;1.37;1.30;;;2.20;98.00;;;;;;5050992;28;20557;-68
2023/03/28 03:16:53;;;;;;;1.20;1.10;;;2.00;98.00;;;;;;5051106;28;20459;-69
2023/03/28 03:19:20;;;;;;;1.73;1.20;;;2.00;98.00;;;;;;5050997;28;20817;-70
2023/03/28 03:21:48;;;;;;;2.07;1.43;;;2.00;98.00;;;;;;5051214;28;20485;-69
2023/03/28 03:24:16;;;;;;;2.00;1.50;;;2.00;98.00;;;;;;5051009;28;20878;-68
2023/03/28 03:26:59;;;;;;;1.50;1.17;;;1.90;98.00;;;;;;5051226;28;20507;-68
2023/03/28 03:29:27;;;;;;;1.97;1.60;;;1.90;98.00;;;;;;5047591;28;20450;-70
2023/03/28 03:31:55;;;;;;;1.50;1.40;;;1.80;98.00;;;;;;5051012;28;20459;-68
2023/03/28 03:34:25;;;;;;;1.60;1.33;;;1.70;98.00;;;;;;5050995;28;20902;-69
2023/03/28 03:36:53;;;;;;;1.37;1.20;;;1.70;98.00;;;;;;5051173;28;20524;-69
2023/03/28 03:39:21;;;;;;;1.30;1.20;;;1.80;98.00;;;;;;5051050;28;20453;-70
2023/03/28 03:41:49;;;;;;;1.63;1.40;;;1.80;98.00;;;;;;5050019;28;20463;-68
2023/03/28 03:44:17;;;;;;;2.17;1.97;;;1.60;98.00;;;;;;5050905;28;20467;-69
2023/03/28 03:46:45;;;;;;;1.20;1.10;;;1.60;98.00;;;;;;5050667;28;20462;-68
2023/03/28 03:49:12;;;;;;;1.93;1.40;;;1.50;98.00;;;;;;5049657;28;20532;-69
2023/03/28 03:51:40;;;;;;;2.07;1.27;;;1.40;98.00;;;;;;5050946;28;20461;-67
2023/03/28 03:54:07;;;;;;;1.73;1.63;;;1.20;98.00;;;;;;5050681;28;20490;-69
2023/03/28 03:56:35;;;;;;;1.93;1.43;;;1.30;98.00;;;;;;5050812;28;20462;-69
2023/03/28 03:59:02;;;;;;;2.73;1.63;;;1.40;98.00;;;;;;5050685;28;20801;-68
2023/03/28 04:01:31;;;;;;;1.70;1.20;;;1.30;98.00;;;;;;5050617;28;20454;-68
2023/03/28 04:03:58;;;;;;;1.93;1.30;;;1.30;98.00;;;;;;5050513;28;20988;-70
2023/03/28 04:06:28;;;;;;;1.50;1.37;;;1.40;98.00;;;;;;5054501;28;20508;-67
2023/03/28 04:08:55;;;;;;;1.60;1.20;;;1.40;98.00;;;;;;5053380;28;20511;-69
2023/03/28 04:11:23;;;;;;;1.70;1.50;;;1.40;98.00;;;;;;5054489;28;21022;-69
2023/03/28 04:13:50;;;;;;;1.63;1.40;;;1.30;98.00;;;;;;5054360;28;20492;-69
2023/03/28 04:16:19;;;;;;;1.87;1.57;;;1.30;98.00;;;;;;5054273;28;20466;-69
2023/03/28 04:18:51;;;;;;;1.33;1.33;;;1.20;98.00;;;;;;5054370;28;20943;-68
2023/03/28 04:21:24;;;;;;;1.50;1.30;;;1.10;98.00;;;;;;5054282;28;20457;-70
2023/03/28 04:23:52;;;;;;;1.50;1.40;;;1.10;98.00;;;;;;5054299;28;20458;-68
2023/03/28 04:26:24;;;;;;;1.20;1.10;;;1.20;98.00;;;;;;5054120;28;20458;-68
2023/03/28 04:28:53;;;;;;;3.00;1.60;;;1.20;98.00;;;;;;5054226;28;20459;-68
2023/03/28 04:31:27;;;;;;;1.40;1.30;;;1.20;98.00;;;;;;5054290;28;20449;-69
2023/03/28 04:33:56;;;;;;;1.87;1.60;;;1.30;98.00;;;;;;5053944;28;20481;-69
2023/03/28 04:36:24;;;;;;;1.50;1.30;;;1.20;98.00;;;;;;5053985;28;20461;-68
2023/03/28 04:38:51;;;;;;;2.03;1.73;;;1.10;98.00;;;;;;5054161;28;20459;-70
2023/03/28 04:41:19;;;;;;;1.40;1.30;;;1.00;98.00;;;;;;5054149;28;20827;-70
2023/03/28 04:43:46;;;;;;;1.73;1.63;;;1.00;98.00;;;;;;5054048;28;20937;-69
2023/03/28 04:46:13;;;;;;;3.00;1.53;;;1.10;98.00;;;;;;5053746;28;20457;-68
2023/03/28 04:48:40;;;;;;;1.83;1.70;;;1.00;98.00;;;;;;5053681;28;20453;-69
2023/03/28 04:51:09;;;;;;;1.93;1.47;;;1.00;98.00;;;;;;5053648;28;20457;-68
2023/03/28 04:53:36;;;;;;;3.20;2.20;;;0.90;98.00;;;;;;5053650;28;20858;-69
2023/03/28 04:56:04;;;;;;;2.70;1.57;;;0.80;98.00;;;;;;5053649;28;20457;-69
2023/03/28 04:58:33;;;;;;;2.50;1.93;;;0.90;98.00;;;;;;5053699;28;20493;-69
2023/03/28 05:01:02;;;;;;;2.17;1.40;;;1.00;98.00;;;;;;5053589;28;20576;-70
2023/03/28 05:03:29;;;;;;;2.40;1.40;;;1.00;98.00;;;;;;5053428;28;20461;-69
2023/03/28 05:05:57;;;;;;;1.40;1.30;;;1.10;98.00;;;;;;5052002;28;20512;-69
2023/03/28 05:08:28;;;;;;;2.27;1.40;;;1.20;98.00;;;;;;5053317;28;20971;-70
2023/03/28 05:10:55;;;;;;;1.53;1.47;;;1.20;98.00;;;;;;5053124;28;20511;-69
2023/03/28 05:13:22;;;;;;;1.57;1.40;;;1.20;98.00;;;;;;5052932;28;20481;-68
2023/03/28 05:15:49;;;;;;;12.40;1.83;;;1.10;98.00;;;;;;5052476;28;20451;-71
2023/03/28 05:18:17;;;;;;;1.63;1.50;;;0.80;98.00;;;;;;5053098;28;20470;-71
2023/03/28 05:20:44;;;;;;;2.23;1.60;;;0.80;98.00;;;;;;5052087;28;20477;-70
2023/03/28 05:23:11;;;;;;;2.17;1.70;;;0.70;98.00;;;;;;5052957;28;20453;-70
2023/03/28 05:25:40;;;;;;;1.83;1.60;;;0.70;98.00;;;;;;5052985;28;20537;-69
2023/03/28 05:28:08;;;;;;;1.80;1.77;;;0.80;98.00;;;;;;5051563;28;20953;-70
2023/03/28 05:30:35;;;;;;;1.80;1.57;;;0.90;98.00;;;;;;5052801;28;20461;-70
2023/03/28 05:33:02;;;;;;;3.20;2.00;;;1.00;98.00;;;;;;5052932;28;20454;-70
2023/03/28 05:35:29;;;;;;;2.47;1.90;;;1.10;98.00;;;;;;5052866;28;20512;-69
2023/03/28 05:37:57;;;;;;;2.63;1.63;;;1.20;98.00;;;;;;5053015;28;20462;-70
2023/03/28 05:40:25;;;;;;;4.07;1.80;;;1.20;98.00;;;;;;5053001;28;20948;-68
2023/03/28 05:42:53;;;;;;;2.40;1.50;;;1.20;98.00;;;;;;5052576;28;20454;-68
2023/03/28 05:45:21;;;;;;;13.77;2.30;;;1.10;98.00;;;;;;5052426;28;20531;-71
2023/03/28 05:47:51;;;;;;;3.77;2.00;;;1.00;98.00;;;;;;5052515;28;20507;-68
2023/03/28 05:50:19;;;;;;;6.57;2.43;;;0.90;98.00;;;;;;5052634;28;20472;-67
2023/03/28 05:52:46;;;;;;;4.90;2.37;;;1.00;98.00;;;;;;5052521;28;20584;-69
2023/03/28 05:55:13;;;;;;;4.87;3.90;;;1.00;98.00;;;;;;5052437;28;21607;-68
2023/03/28 05:57:42;;;;;;;5.07;3.00;;;1.00;98.00;;;;;;5052343;28;20466;-68
2023/03/28 06:00:12;;;;;;;5.70;3.13;;;1.00;98.00;;;;;;5052458;28;20459;-69
2023/03/28 06:02:41;;;;;;;4.23;2.57;;;1.00;98.00;;;;;;5052276;28;20458;-63
2023/03/28 06:05:09;;;;;;;2.93;2.70;;;0.90;98.00;;;;;;5052222;28;20450;-63
2023/03/28 06:07:37;;;;;;;3.30;2.00;;;0.80;98.00;;;;;;5050953;28;20465;-63
2023/03/28 06:10:06;;;;;;;4.23;2.27;;;0.70;98.00;;;;;;5051129;28;20536;-62
2023/03/28 06:12:33;;;;;;;3.73;2.50;;;0.80;98.00;;;;;;5052098;28;20947;-63
2023/03/28 06:15:00;;;;;;;2.33;2.10;;;0.70;98.00;;;;;;5052153;28;20493;-63
2023/03/28 06:17:29;;;;;;;1.63;1.63;;;0.80;98.00;;;;;;5051971;28;20460;-62
2023/03/28 06:19:57;;;;;;;3.00;2.40;;;0.90;98.00;;;;;;5052029;28;20535;-62
2023/03/28 06:22:25;;;;;;;1.90;1.63;;;1.10;98.00;;;;;;5051996;28;20538;-62
2023/03/28 06:24:52;;;;;;;11.13;3.03;;;1.20;98.00;;;;;;5051786;28;20496;-62
2023/03/28 06:27:20;;;;;;;6.03;2.10;;;1.40;98.00;;;;;;5051540;28;20481;-62
2023/03/28 06:29:47;;;;;;;1.90;1.70;;;1.60;98.00;;;;;;5052083;28;20454;-62
2023/03/28 06:32:16;;;;;;;3.93;2.60;;;1.60;98.00;;;;;;5051903;28;20824;-62
2023/03/28 06:34:45;;;;;;;3.87;2.27;;;1.70;98.00;;;;;;5051990;28;20486;-63
2023/03/28 06:37:12;;;;;;;2.43;2.07;;;1.70;98.00;;;;;;5052004;28;20472;-63
2023/03/28 06:39:39;;;;;;;2.60;1.60;;;1.70;98.00;;;;;;5051790;28;20450;-63
2023/03/28 06:42:06;;;;;;;3.40;2.10;;;1.80;98.00;;;;;;5051599;28;20468;-62
2023/03/28 06:44:36;;;;;;;2.67;1.80;;;1.90;98.00;;;;;;5051535;28;20533;-63
2023/03/28 06:47:04;;;;;;;1.43;1.43;;;2.00;98.00;;;;;;5049961;28;20477;-63
2023/03/28 06:49:31;;;;;;;5.33;3.10;;;2.00;98.00;;;;;;5051515;28;20537;-63
2023/03/28 06:51:59;;;;;;;8.03;2.67;;;2.00;98.00;;;;;;5051418;28;20462;-62
2023/03/28 06:54:26;;;;;;;2.77;2.23;;;2.10;98.00;;;;;;5049908;28;20542;-62
2023/03/28 06:56:54;;;;;;;5.63;2.43;;;2.00;98.00;;;;;;5051478;28;20536;-63
2023/03/28 06:59:21;;;;;;;2.67;2.27;;;2.00;98.00;;;;;;5051319;28;20450;-63
2023/03/28 07:01:49;;;;;;;2.10;2.00;;;2.00;98.00;;;;;;5051657;28;20447;-62
2023/03/28 07:04:16;;;;;;;2.90;1.83;;;2.10;98.00;;;;;;5051219;28;20472;-62
2023/03/28 07:06:43;;;;;;;5.80;3.07;;;2.20;98.00;;;;;;5051366;28;21135;-63
2023/03/28 07:09:12;;;;;;;4.37;2.67;;;2.20;98.00;;;;;;5052444;28;20466;-63
2023/03/28 07:11:39;;;;;;;2.90;2.17;;;2.30;98.00;;;;;;5051407;28;20483;-63
2023/03/28 07:14:06;;;;;;;2.43;2.17;;;2.50;98.00;;;;;;5051994;28;20535;-62
2023/03/28 07:16:33;;;;;;;3.30;2.13;;;2.50;98.00;;;;;;5051481;28;20498;-62
2023/03/28 07:19:00;;;;;;;2.43;1.70;;;2.70;98.00;;;;;;5051220;28;20458;-62
2023/03/28 07:21:27;;;;;;;1.40;1.40;;;2.90;98.00;;;;;;5051226;28;20879;-63
2023/03/28 07:23:54;;;;;;;1.60;1.50;;;2.90;98.00;;;;;;5051122;28;20456;-63
2023/03/28 07:26:23;;;;;;;1.90;1.50;;;2.90;98.00;;;;;;5050087;28;20844;-63
2023/03/28 07:28:52;;;;;;;2.30;1.80;;;3.10;98.00;;;;;;5051175;28;20453;-63
2023/03/28 07:31:21;;;;;;;4.67;2.33;;;3.10;98.00;;;;;;5051156;28;20455;-62
2023/03/28 07:33:49;;;;;;;1.60;1.50;;;3.20;98.00;;;;;;5051215;28;20545;-63
2023/03/28 07:36:19;;;;;;;2.80;1.87;;;3.30;98.00;;;;;;5051253;28;20555;-62
2023/03/28 07:38:48;;;;;;;2.77;1.67;;;3.30;98.00;;;;;;5049950;28;20454;-62
2023/03/28 07:41:18;;;;;;;1.30;1.30;;;3.40;98.00;;;;;;5055021;28;20462;-62
2023/03/28 07:43:46;;;;;;;2.53;1.57;;;3.40;98.00;;;;;;5048569;28;20455;-63
2023/03/28 07:46:19;;;;;;;1.80;1.47;;;3.60;98.00;;;;;;5054639;28;20471;-63
2023/03/28 07:48:46;;;;;;;2.13;1.70;;;3.90;98.00;;;;;;5054765;28;20567;-63
2023/03/28 07:51:15;;;;;;;1.93;1.70;;;4.00;98.00;;;;;;5054761;28;20463;-62
2023/03/28 07:53:42;;;;;;;1.80;1.43;;;4.20;98.00;;;;;;5054301;28;20820;-63
2023/03/28 07:56:10;;;;;;;1.70;1.20;;;4.20;98.00;;;;;;5054450;28;20543;-61
2023/03/28 07:58:38;;;;;;;4.20;1.60;;;4.30;98.00;;;;;;5054682;28;20824;-62
2023/03/28 08:01:08;;;;;;;1.33;1.20;;;4.20;98.00;;;;;;5054490;28;20521;-62
2023/03/28 08:03:37;;;;;;;1.27;1.27;;;4.20;98.00;;;;;;5054374;28;20882;-62
2023/03/28 08:06:06;;;;;;;1.60;1.27;;;4.40;98.00;;;;;;5044864;28;20457;-62
2023/03/28 08:08:33;;;;;;;10.30;3.80;;;4.40;98.00;;;;;;5034334;28;20470;-63
2023/03/28 08:11:00;;;;;;;1.50;1.30;;;4.50;98.00;;;;;;5034380;28;20456;-63
2023/03/28 08:17:44;;;;;;;1.63;1.40;;;4.60;98.00;;;;;;4986459;28;20470;-86
2023/03/28 08:20:59;;;;;;;2.37;1.40;;;5.40;98.00;;;;;;5002862;28;20465;-87
2023/03/28 08:23:47;;;;;;;1.20;1.10;;;5.60;98.00;;;;;;5034989;28;20988;-86
2023/03/28 08:26:51;;;;;;;1.70;1.33;;;5.60;98.00;;;;;;5034998;28;20465;-86
2023/03/28 08:29:35;;;;;;;2.37;1.47;;;5.70;98.00;;;;;;5035462;28;20531;-87
2023/03/28 08:32:05;;;;;;;4.70;1.53;;;5.70;98.00;;;;;;5035878;28;20442;-87
2023/03/28 08:34:36;;;;;;;1.90;1.50;;;5.90;98.00;;;;;;5035244;28;20900;-87
2023/03/28 08:37:07;;;;;;;7.23;1.53;;;6.00;98.00;;;;;;5035530;28;20462;-85
2023/03/28 08:40:19;;;;;;;1.90;1.47;;;5.90;98.00;;;;;;5034516;28;20896;-85
2023/03/28 08:51:40;;;;;;;2.30;1.60;;;6.30;98.00;;;;;;5030666;28;20463;-86
2023/03/28 08:54:17;;;;;;;1.73;1.50;;;6.50;98.00;;;;;;5037579;28;20484;-87
2023/03/28 08:56:52;;;;;;;1.60;1.57;;;6.70;98.00;;;;;;5036895;28;20481;-87
2023/03/28 08:59:27;;;;;;;2.20;1.87;;;6.90;98.00;;;;;;5036945;28;20455;-87
2023/03/28 09:02:08;;;;;;;3.30;2.17;;;7.10;98.00;;;;;;5038485;28;20515;-87
2023/03/28 09:04:42;;;;;;;1.70;1.20;;;;;;;;;;5037046;28;20553;-87
2023/03/28 09:07:27;;;;;;;5.33;1.73;;;7.00;98.00;;;;;;5036114;28;20473;-87
2023/03/28 09:10:08;;;;;;;9.00;2.27;;;7.10;98.00;;;;;;5047974;28;20473;-87
2023/03/28 09:12:58;;;;;;;10.00;1.70;;;7.00;98.00;;;;;;5056856;28;20522;-86
2023/03/28 09:16:17;;;;;;;;;;;;;;;;;;;;;
2023/03/28 09:19:27;;;;;;;1.97;1.87;;;7.20;98.00;;;;;;5036502;28;20529;-87
2023/03/28 09:22:39;;;;;;;3.20;2.00;;;7.50;98.00;;;;;;5021167;28;20993;-87
2023/03/28 09:25:26;;;;;;;2.93;1.80;;;7.70;98.00;;;;;;5034708;28;20455;-87
2023/03/28 09:31:09;;;;;;;4.13;1.70;;;8.00;98.00;;;;;;5032944;28;20472;-88
2023/03/28 09:33:45;;;;;;;3.00;1.60;;;7.70;98.00;;;;;;5033391;28;20490;-87
2023/03/28 09:36:22;;;;;;;4.00;1.70;;;7.50;98.00;;;;;;5032838;28;20512;-87
2023/03/28 09:39:00;;;;;;;2.50;1.80;;;7.50;98.00;;;;;;5034453;28;20473;-87
2023/03/28 09:41:47;;;;;;;1.87;1.50;;;7.60;98.00;;;;;;5033688;28;20466;-87
2023/03/28 09:44:28;;;;;;;6.80;1.77;;;7.90;98.00;;;;;;5032650;28;21002;-87
2023/03/28 09:46:57;;;;;;;4.93;1.83;;;8.00;97.80;;;;;;5033796;28;20468;-87
2023/03/28 09:52:34;;;;;;;2.70;1.50;;;8.70;95.60;;;;;;5030604;28;21035;-89
2023/03/28 09:55:14;;;;;;;2.37;1.60;;;9.10;95.80;;;;;;5044084;28;20572;-88
2023/03/28 09:58:33;;;;;;;2.23;1.40;;;9.30;95.70;;;;;;5054022;28;20440;-87
2023/03/28 10:01:00;;;;;;;1.50;1.40;;;9.40;95.50;;;;;;5053304;28;20825;-89
2023/03/28 10:03:34;;;;;;;2.43;1.90;;;9.50;96.40;;;;;;5053929;28;20485;-89
2023/03/28 10:06:23;;;;;;;3.97;2.00;;;9.70;95.00;;;;;;5054045;28;20490;-89
2023/03/28 10:09:31;;;;;;;2.07;1.97;;;9.80;94.60;;;;;;5053794;28;20460;-90
2023/03/28 10:18:33;;;;;;;2.23;1.60;;;8.80;93.90;;;;;;5053133;28;20461;-90
2023/03/28 10:27:26;;;;;;;4.00;1.90;;;7.80;94.00;;;;;;4972908;28;20984;-90
2023/03/28 10:29:58;;;;;;;2.83;1.73;;;7.90;95.40;;;;;;5044217;28;20547;-90
2023/03/28 10:32:31;;;;;;;1.83;1.50;;;8.50;95.60;;;;;;5053082;28;20461;-89
2023/03/28 10:35:06;;;;;;;5.27;1.80;;;9.00;93.90;;;;;;5052598;28;20444;-90
2023/03/28 10:37:37;;;;;;;10.20;1.80;;;9.10;93.10;;;;;;5053210;28;20468;-89
2023/03/28 10:40:26;;;;;;;1.83;1.50;;;8.90;91.90;;;;;;5053254;28;20460;-89
2023/03/28 10:42:57;;;;;;;2.23;1.70;;;8.60;91.50;;;;;;5053252;28;20481;-88
2023/03/28 10:45:33;;;;;;;1.90;1.30;;;8.80;94.00;;;;;;5052910;28;20462;-89
2023/03/28 10:48:13;;;;;;;1.63;1.30;;;8.80;90.90;;;;;;5053027;28;20465;-88
2023/03/28 10:50:44;;;;;;;3.60;1.60;;;8.60;91.60;;;;;;5053308;28;20520;-87
2023/03/28 10:53:29;;;;;;;2.50;1.50;;;8.60;92.40;;;;;;5053099;28;20509;-87
2023/03/28 10:56:12;;;;;;;5.70;1.90;;;9.10;95.00;;;;;;5046097;28;20841;-89
2023/03/28 10:58:52;;;;;;;3.83;1.80;;;9.30;92.60;;;;;;5052982;28;20960;-90
2023/03/28 11:01:41;;;;;;;2.77;1.90;;;9.90;91.10;;;;;;5052920;28;20544;-89
2023/03/28 11:04:28;;;;;;;3.63;1.67;;;10.30;91.60;;;;;;5052646;28;20494;-89
2023/03/28 11:07:05;;;;;;;2.13;1.70;;;10.90;90.20;;;;;;5052981;28;21006;-91
2023/03/28 11:09:58;;;;;;;3.47;2.00;;;10.90;85.70;;;;;;5052806;28;20982;-90
2023/03/28 11:12:38;;;;;;;3.07;2.13;;;10.90;85.40;;;;;;5046483;28;20520;-89
2023/03/28 11:15:13;;;;;;;4.20;1.80;;;11.20;89.70;;;;;;5031319;28;20478;-89
2023/03/28 11:17:51;;;;;;;3.40;2.07;;;11.50;87.90;;;;;;5032128;28;21001;-89
2023/03/28 11:20:37;;;;;;;5.03;2.23;;;12.00;85.40;;;;;;5030555;28;20454;-89
2023/03/28 11:23:30;;;;;;;3.70;1.90;;;12.30;82.50;;;;;;5031569;28;20489;-89
2023/03/28 11:26:01;;;;;;;1.77;1.50;;;12.20;84.00;;;;;;5031214;28;20460;-89
2023/03/28 11:28:38;;;;;;;15.17;1.90;;;11.70;83.60;;;;;;5031491;28;20617;-88
2023/03/28 11:31:05;;;;;;;2.87;1.70;;;11.20;84.10;;;;;;5031352;28;20458;-89
2023/03/28 11:33:38;;;;;;;1.90;1.30;;;11.10;84.40;;;;;;5031378;28;20595;-87
2023/03/28 11:36:10;;;;;;;10.53;1.60;;;11.70;85.70;;;;;;5030692;28;20486;-89
2023/03/28 11:38:40;;;;;;;3.03;1.80;;;12.00;83.60;;;;;;5031250;28;20463;-88
2023/03/28 11:41:10;;;;;;;10.13;2.03;;;12.20;82.10;;;;;;5031410;28;20467;-88
2023/03/28 11:43:42;;;;;;;1.70;1.43;;;12.10;83.30;;;;;;5032379;28;20476;-89
2023/03/28 11:46:14;;;;;;;1.70;1.70;;;12.00;84.50;;;;;;5043504;28;20507;-86
2023/03/28 11:48:49;;;;;;;2.50;1.43;;;12.30;81.50;;;;;;5055948;28;20487;-87
2023/03/28 11:51:35;;;;;;;2.80;1.87;;;12.50;81.80;;;;;;5036309;28;20452;-89
2023/03/28 11:54:09;;;;;;;2.77;1.90;;;13.10;82.70;;;;;;5031217;28;20486;-88
2023/03/28 11:56:50;;;;;;;3.10;1.50;;;13.30;81.70;;;;;;5031267;28;20490;-89
2023/03/28 11:59:24;;;;;;;2.03;1.57;;;13.90;79.60;;;;;;5031347;28;20513;-89
2023/03/28 12:01:57;;;;;;;2.33;1.57;;;14.30;78.50;;;;;;5031184;28;20547;-89
2023/03/28 12:04:39;;;;;;;1.60;1.50;;;14.40;78.80;;;;;;5030452;28;20481;-90
2023/03/28 12:07:14;;;;;;;2.40;1.70;;;14.30;77.50;;;;;;5038250;28;20456;-87
2023/03/28 12:09:54;;;;;;;2.73;1.70;;;14.40;84.30;;;;;;5011354;28;20487;-87
2023/03/28 12:12:26;;;;;;;2.40;1.60;;;14.60;82.10;;;;;;5028188;28;20518;-87
2023/03/28 12:15:15;;;;;;;5.43;1.67;;;14.30;83.20;;;;;;5032360;28;20803;-89
2023/03/28 12:18:03;;;;;;;4.63;1.97;;;13.90;79.00;;;;;;5032610;28;20461;-89
2023/03/28 12:20:58;;;;;;;;;;;;;;;;;;;;;
2023/03/28 12:30:55;;;;;;;3.20;1.77;;;12.80;80.00;;;;;;4949649;28;20580;-89
2023/03/28 12:43:21;;;;;;;3.70;1.80;;;14.40;75.80;;;;;;5061225;22;20498;-64
2023/03/28 12:45:55;;;;;;;4.10;1.40;;;14.70;74.40;;;;;;5054073;28;20502;-64
2023/03/28 12:48:30;;;;;;;3.43;2.30;;;14.30;74.70;;;;;;5053908;28;20464;-64
2023/03/28 12:51:00;;;;;;;3.40;1.80;;;14.60;73.90;;;;;;5053961;28;20666;-63
2023/03/28 12:53:32;;;;;;;2.60;1.60;;;14.50;73.20;;;;;;5053598;28;20456;-64
2023/03/28 12:56:02;;;;;;;2.30;1.60;;;14.70;72.90;;;;;;5053575;28;20482;-64
2023/03/28 12:58:34;;;;;;;4.67;2.00;;;14.80;74.30;;;;;;5053598;28;20467;-64
2023/03/28 13:01:25;;;;;;;2.10;1.60;;;14.90;73.00;;;;;;5053749;28;20465;-63
2023/03/28 13:04:00;;;;;;;2.50;1.90;;;15.00;75.80;;;;;;5052374;28;20865;-64
2023/03/28 13:06:39;;;;;;;3.87;1.60;;;15.10;75.00;;;;;;5053552;28;20460;-64
2023/03/28 13:09:37;;;;;;;2.33;1.73;;;15.10;74.40;;;;;;5053507;28;20463;-63
2023/03/28 13:12:18;;;;;;;3.80;1.70;;;15.40;73.30;;;;;;5053348;28;20453;-63
2023/03/28 13:14:59;;;;;;;2.67;1.63;;;15.50;73.90;;;;;;5053026;28;21055;-63
2023/03/28 13:17:27;;;;;;;7.90;2.30;;;15.40;72.20;;;;;;5053274;28;20481;-64
2023/03/28 13:20:05;;;;;;;3.07;1.83;;;15.00;74.00;;;;;;5053262;28;20460;-64
2023/03/28 13:22:40;;;;;;;2.93;1.80;;;14.80;71.80;;;;;;5053256;28;20883;-64
2023/03/28 13:25:22;;;;;;;6.00;1.80;;;14.90;71.10;;;;;;5053075;28;20855;-64
2023/03/28 13:27:50;;;;;;;5.97;2.03;;;15.10;71.40;;;;;;5053277;28;20525;-64
2023/03/28 13:30:23;;;;;;;4.10;2.10;;;15.00;70.30;;;;;;5053158;28;20460;-64
2023/03/28 13:32:52;;;;;;;2.70;1.60;;;15.40;71.80;;;;;;5053002;28;20826;-63
2023/03/28 13:35:38;;;;;;;2.30;1.60;;;15.50;73.10;;;;;;5052790;28;20489;-64
2023/03/28 13:38:32;;;;;;;2.70;1.70;;;15.60;70.10;;;;;;5051911;28;20471;-64
2023/03/28 13:41:00;;;;;;;2.03;1.70;;;15.80;70.40;;;;;;5051957;28;20459;-64
2023/03/28 13:43:40;;;;;;;1.80;1.50;;;15.90;69.90;;;;;;5052796;28;20960;-64
2023/03/28 13:46:13;;;;;;;1.83;1.47;;;15.90;70.40;;;;;;5052936;28;20535;-64
2023/03/28 13:48:46;;;;;;;1.87;1.63;;;15.60;68.10;;;;;;5052654;28;20478;-64
2023/03/28 13:51:19;;;;;;;2.67;1.70;;;15.50;71.60;;;;;;5052837;28;21022;-64
2023/03/28 13:53:47;;;;;;;1.53;1.53;;;15.40;70.30;;;;;;5052442;28;20468;-63
2023/03/28 13:56:23;;;;;;;3.60;1.80;;;15.30;70.40;;;;;;5052447;28;20896;-64
2023/03/28 13:58:52;;;;;;;2.00;1.70;;;15.30;70.90;;;;;;5052464;28;20550;-64
2023/03/28 14:01:24;;;;;;;1.80;1.43;;;15.30;70.60;;;;;;5052478;28;20551;-64
2023/03/28 14:03:52;;;;;;;2.30;1.60;;;15.60;71.10;;;;;;5051221;28;20967;-64
2023/03/28 14:06:22;;;;;;;2.43;1.60;;;15.70;70.30;;;;;;5052403;28;20459;-64
2023/03/28 14:08:51;;;;;;;11.13;1.57;;;15.90;68.20;;;;;;5052234;28;20471;-65
2023/03/28 14:11:22;;;;;;;3.00;1.70;;;16.00;68.10;;;;;;5052444;28;20460;-64
2023/03/28 14:13:51;;;;;;;3.40;1.70;;;16.40;66.60;;;;;;5052228;28;20462;-64
2023/03/28 14:16:21;;;;;;;1.93;1.60;;;16.50;65.00;;;;;;5052051;28;20566;-64
2023/03/28 14:18:50;;;;;;;2.00;1.70;;;16.70;67.10;;;;;;5052258;28;20466;-64
2023/03/28 14:21:18;;;;;;;1.67;1.57;;;16.90;67.50;;;;;;5051971;28;20513;-64